Time;durP1;ratioP1;P1;durP2;ratioP2;P2;SDS_P1;SDS_P2;PMS_P1;PMS_P2;Temp;Humidity;BMP_temperature;BMP_pressure;BME280_temperature;BME280_humidity;BME280_pressure;Samples;Min_cycle;Max_cycle;Signal;HPM_P1;HPM_P2
2024/01/25 00:00:52;;;;;;;56.80;52.43;;;;;;;;;;4147478;28;20034;-63
2024/01/25 00:02:54;;;;;;;58.17;53.53;;;;;;;;;;4147841;28;20041;-63
2024/01/25 00:04:55;;;;;;;57.47;52.88;;;;;;;;;;4147923;28;20042;-63
2024/01/25 00:06:57;;;;;;;58.10;53.47;;;;;;;;;;4147889;28;20080;-62
2024/01/25 00:09:00;;;;;;;56.42;52.33;;;;;;;;;;4147887;28;20441;-62
2024/01/25 00:11:02;;;;;;;55.13;50.67;;;;;;;;;;4147813;28;20406;-63
2024/01/25 00:13:04;;;;;;;54.42;50.40;;;;;;;;;;4158063;28;20425;-63
2024/01/25 00:15:05;;;;;;;52.85;49.22;;;;;;;;;;4164633;28;20037;-63
2024/01/25 00:17:07;;;;;;;53.67;49.40;;;;;;;;;;4163057;28;20041;-63
2024/01/25 00:19:09;;;;;;;60.03;54.97;;;;;;;;;;4147779;28;20045;-63
2024/01/25 00:21:11;;;;;;;60.05;55.38;;;;;;;;;;4147598;28;20076;-63
2024/01/25 00:23:12;;;;;;;60.60;55.50;;;;;;;;;;4147436;28;20034;-62
2024/01/25 00:25:14;;;;;;;65.00;59.05;;;;;;;;;;4147740;28;20045;-63
2024/01/25 00:27:16;;;;;;;65.85;59.72;;;;;;;;;;4147685;28;20034;-63
2024/01/25 00:29:17;;;;;;;63.70;57.78;;;;;;;;;;4147587;28;20524;-63
2024/01/25 00:31:19;;;;;;;62.90;57.33;;;;;;;;;;4147692;28;20038;-63
2024/01/25 00:33:21;;;;;;;55.92;51.70;;;;;;;;;;4147624;28;20513;-63
2024/01/25 00:35:23;;;;;;;58.88;54.55;;;;;;;;;;4147867;28;20053;-58
2024/01/25 00:37:25;;;;;;;;;;;;;;;;;;4148029;28;20569;-58
2024/01/25 00:39:27;;;;;;;56.40;51.47;;;;;;;;;;4147708;28;20012;-58
2024/01/25 00:41:31;;;;;;;58.05;53.70;;;;;;;;;;4147474;28;20417;-58
2024/01/25 00:43:33;;;;;;;53.47;49.45;;;;;;;;;;4147437;28;20371;-58
2024/01/25 00:45:34;;;;;;;60.53;55.55;;;;;;;;;;4147547;28;20564;-58
2024/01/25 00:47:36;;;;;;;62.58;56.63;;;;;;;;;;4162353;28;20068;-59
2024/01/25 00:49:38;;;;;;;57.22;52.65;;;;;;;;;;4163901;28;20033;-58
2024/01/25 00:51:44;;;;;;;59.40;54.10;;;;;;;;;;4150333;28;20417;-59
2024/01/25 00:53:46;;;;;;;59.22;54.63;;;;;;;;;;4147509;28;20100;-58
2024/01/25 00:55:48;;;;;;;61.53;55.90;;;;;;;;;;4163838;28;20045;-59
2024/01/25 00:57:51;;;;;;;62.20;57.03;;;;;;;;;;4163802;28;20711;-58
2024/01/25 00:59:53;;;;;;;59.80;55.33;;;;;;;;;;4154339;28;20406;-59
2024/01/25 01:01:56;;;;;;;63.58;57.78;;;;;;;;;;4146805;28;20520;-59
2024/01/25 01:03:57;;;;;;;;;;;;;;;;;;4138247;28;20070;-59
2024/01/25 01:05:59;;;;;;;59.17;54.10;;;;;;;;;;4129865;28;20453;-58
2024/01/25 01:08:01;;;;;;;56.55;51.00;;;;;;;;;;4131093;28;20090;-58
2024/01/25 01:10:03;;;;;;;59.88;53.65;;;;;;;;;;4130911;28;20081;-59
2024/01/25 01:12:06;;;;;;;61.25;55.15;;;;;;;;;;4133919;28;20046;-58
2024/01/25 01:14:07;;;;;;;62.42;51.55;;;;;;;;;;4150350;28;20120;-58
2024/01/25 01:16:09;;;;;;;75.22;54.95;;;;;;;;;;4150194;28;20042;-59
2024/01/25 01:18:10;;;;;;;72.68;58.08;;;;;;;;;;4150171;28;20153;-58
2024/01/25 01:20:12;;;;;;;77.20;58.00;;;;;;;;;;4150344;28;20046;-58
2024/01/25 01:22:14;;;;;;;57.13;52.50;;;;;;;;;;4150165;28;20037;-59
2024/01/25 01:24:16;;;;;;;62.05;56.70;;;;;;;;;;4150069;28;20378;-59
2024/01/25 01:26:17;;;;;;;65.60;58.60;;;;;;;;;;4150097;28;20073;-59
2024/01/25 01:28:19;;;;;;;68.07;57.00;;;;;;;;;;4149647;28;20100;-58
2024/01/25 01:30:21;;;;;;;81.73;57.83;;;;;;;;;;4150212;28;20584;-59
2024/01/25 01:32:23;;;;;;;68.18;58.33;;;;;;;;;;4150174;28;20289;-58
2024/01/25 01:34:24;;;;;;;70.33;55.07;;;;;;;;;;4150090;28;20049;-58
2024/01/25 01:36:26;;;;;;;73.35;58.05;;;;;;;;;;4150118;28;20296;-58
2024/01/25 01:38:28;;;;;;;76.85;58.33;;;;;;;;;;4150113;28;20053;-58
2024/01/25 01:40:29;;;;;;;77.50;58.08;;;;;;;;;;4149828;28;20046;-58
2024/01/25 01:42:32;;;;;;;67.40;57.90;;;;;;;;;;4149659;28;20045;-58
2024/01/25 01:44:34;;;;;;;74.05;58.13;;;;;;;;;;4150228;28;20042;-63
2024/01/25 01:46:39;;;;;;;75.00;58.92;;;;;;;;;;4156667;28;20072;-63
2024/01/25 01:48:41;;;;;;;87.70;60.20;;;;;;;;;;4152794;28;20105;-62
2024/01/25 01:50:44;;;;;;;84.18;60.35;;;;;;;;;;4155048;28;20116;-63
2024/01/25 01:52:46;;;;;;;71.45;59.97;;;;;;;;;;4166274;28;20034;-63
2024/01/25 01:54:48;;;;;;;76.82;58.78;;;;;;;;;;4166313;28;20420;-63
2024/01/25 01:56:51;;;;;;;70.43;59.90;;;;;;;;;;4166113;28;20099;-62
2024/01/25 01:58:53;;;;;;;71.72;59.45;;;;;;;;;;4165247;28;20041;-63
2024/01/25 02:00:56;;;;;;;70.10;59.75;;;;;;;;;;4166152;28;20033;-63
2024/01/25 02:02:57;;;;;;;72.85;60.70;;;;;;;;;;4166281;28;20045;-63
2024/01/25 02:04:59;;;;;;;76.53;60.03;;;;;;;;;;4165928;28;20417;-63
2024/01/25 02:07:01;;;;;;;76.53;58.45;;;;;;;;;;4165969;28;20068;-63
2024/01/25 02:09:03;;;;;;;88.07;63.27;;;;;;;;;;4166105;28;20041;-63
2024/01/25 02:11:05;;;;;;;94.88;60.67;;;;;;;;;;4165884;28;20041;-63
2024/01/25 02:13:06;;;;;;;80.28;62.78;;;;;;;;;;4165675;28;20107;-63
2024/01/25 02:15:08;;;;;;;82.50;62.78;;;;;;;;;;4165890;28;20401;-63
2024/01/25 02:17:10;;;;;;;86.75;63.72;;;;;;;;;;4164438;28;20255;-63
2024/01/25 02:19:12;;;;;;;84.00;59.92;;;;;;;;;;4149474;28;20057;-63
2024/01/25 02:21:13;;;;;;;79.07;61.95;;;;;;;;;;4149245;28;20092;-63
2024/01/25 02:23:15;;;;;;;76.17;58.90;;;;;;;;;;4148710;28;20516;-63
2024/01/25 02:25:17;;;;;;;73.30;58.90;;;;;;;;;;4149309;28;20299;-63
2024/01/25 02:27:19;;;;;;;77.70;58.63;;;;;;;;;;4149319;28;20038;-63
2024/01/25 02:29:21;;;;;;;86.30;57.73;;;;;;;;;;4149377;28;20069;-63
2024/01/25 02:31:22;;;;;;;80.55;58.47;;;;;;;;;;4149189;28;20292;-63
2024/01/25 02:33:24;;;;;;;75.13;56.20;;;;;;;;;;4149214;28;20034;-63
2024/01/25 02:35:25;;;;;;;92.97;60.17;;;;;;;;;;4149150;28;20528;-63
2024/01/25 02:37:27;;;;;;;88.87;56.57;;;;;;;;;;4149157;28;20050;-63
2024/01/25 02:39:29;;;;;;;79.32;59.55;;;;;;;;;;4149224;28;20296;-63
2024/01/25 02:41:31;;;;;;;86.82;56.63;;;;;;;;;;4148878;28;20041;-63
2024/01/25 02:43:32;;;;;;;82.22;56.50;;;;;;;;;;4148694;28;20049;-63
2024/01/25 02:45:34;;;;;;;91.80;61.60;;;;;;;;;;4131420;28;20042;-63
2024/01/25 02:47:36;;;;;;;77.73;57.70;;;;;;;;;;4153322;28;20166;-63
2024/01/25 02:49:37;;;;;;;86.67;57.77;;;;;;;;;;4149052;28;20038;-63
2024/01/25 02:51:39;;;;;;;77.35;54.67;;;;;;;;;;4148774;28;20088;-63
2024/01/25 02:53:41;;;;;;;71.57;55.95;;;;;;;;;;4148844;28;20038;-63
2024/01/25 02:55:43;;;;;;;91.37;54.70;;;;;;;;;;4149209;28;20045;-64
2024/01/25 02:57:44;;;;;;;72.75;55.03;;;;;;;;;;4148791;28;20121;-63
2024/01/25 02:59:47;;;;;;;65.20;55.83;;;;;;;;;;4148683;28;20120;-63
2024/01/25 03:01:48;;;;;;;91.32;57.63;;;;;;;;;;4148778;28;20292;-63
2024/01/25 03:03:50;;;;;;;82.03;58.05;;;;;;;;;;4148120;28;20045;-63
2024/01/25 03:05:53;;;;;;;84.82;58.63;;;;;;;;;;4148085;28;20506;-63
2024/01/25 03:07:55;;;;;;;68.05;55.70;;;;;;;;;;4148336;28;20461;-63
2024/01/25 03:09:56;;;;;;;64.68;53.15;;;;;;;;;;4148653;28;20041;-63
2024/01/25 03:11:58;;;;;;;101.63;59.88;;;;;;;;;;4148374;28;20042;-63
2024/01/25 03:13:59;;;;;;;91.65;59.33;;;;;;;;;;4148640;28;20045;-62
2024/01/25 03:16:02;;;;;;;87.30;55.60;;;;;;;;;;4148647;28;20119;-63
2024/01/25 03:18:03;;;;;;;134.32;61.40;;;;;;;;;;4139781;28;20078;-63
2024/01/25 03:20:06;;;;;;;118.10;62.15;;;;;;;;;;4132299;28;20413;-63
2024/01/25 03:22:08;;;;;;;162.48;65.15;;;;;;;;;;4132260;28;20417;-63
2024/01/25 03:24:09;;;;;;;131.50;63.80;;;;;;;;;;4136476;28;20038;-62
2024/01/25 03:26:11;;;;;;;100.40;61.13;;;;;;;;;;4132088;28;20046;-63
2024/01/25 03:28:14;;;;;;;117.88;61.08;;;;;;;;;;4131427;28;20561;-63
2024/01/25 03:30:16;;;;;;;89.60;62.63;;;;;;;;;;4132166;28;20515;-62
2024/01/25 03:32:18;;;;;;;100.40;60.78;;;;;;;;;;4132115;28;20053;-62
2024/01/25 03:34:20;;;;;;;113.05;61.08;;;;;;;;;;4131799;28;20573;-63
2024/01/25 03:36:21;;;;;;;101.13;59.03;;;;;;;;;;4131819;28;20121;-63
2024/01/25 03:38:23;;;;;;;100.85;59.55;;;;;;;;;;4132179;28;20458;-63
2024/01/25 03:40:25;;;;;;;100.85;59.85;;;;;;;;;;4138720;28;20117;-63
2024/01/25 03:42:26;;;;;;;90.25;58.53;;;;;;;;;;4147862;28;20042;-63
2024/01/25 03:44:28;;;;;;;102.35;58.72;;;;;;;;;;4146121;28;20125;-63
2024/01/25 03:46:30;;;;;;;114.45;60.22;;;;;;;;;;4158398;28;20092;-63
2024/01/25 03:48:32;;;;;;;92.95;56.65;;;;;;;;;;4148116;28;20042;-63
2024/01/25 03:50:34;;;;;;;80.50;55.05;;;;;;;;;;4147851;28;20030;-63
2024/01/25 03:52:38;;;;;;;83.75;54.13;;;;;;;;;;4147996;28;20038;-63
2024/01/25 03:54:40;;;;;;;85.25;56.17;;;;;;;;;;4148118;28;20505;-63
2024/01/25 03:56:41;;;;;;;74.97;53.50;;;;;;;;;;4148100;28;20050;-62
2024/01/25 03:58:44;;;;;;;77.72;55.83;;;;;;;;;;4147964;28;20513;-63
2024/01/25 04:00:45;;;;;;;78.75;57.25;;;;;;;;;;4147839;28;20533;-63
2024/01/25 04:02:47;;;;;;;80.47;56.10;;;;;;;;;;4148026;28;20124;-63
2024/01/25 04:04:49;;;;;;;76.88;57.25;;;;;;;;;;4130605;28;20046;-62
2024/01/25 04:06:51;;;;;;;80.25;58.40;;;;;;;;;;4148002;28;20034;-63
2024/01/25 04:08:53;;;;;;;83.18;55.17;;;;;;;;;;4139606;28;20046;-63
2024/01/25 04:10:54;;;;;;;83.45;58.85;;;;;;;;;;4146867;28;20072;-63
2024/01/25 04:12:56;;;;;;;104.53;55.70;;;;;;;;;;4133406;28;20078;-63
2024/01/25 04:14:58;;;;;;;72.45;56.67;;;;;;;;;;4147715;28;20041;-63
2024/01/25 04:16:59;;;;;;;75.50;57.10;;;;;;;;;;4147642;28;20517;-63
2024/01/25 04:19:01;;;;;;;83.40;55.70;;;;;;;;;;4140276;28;20449;-63
2024/01/25 04:21:03;;;;;;;79.57;56.38;;;;;;;;;;4147764;28;20050;-63
2024/01/25 04:23:04;;;;;;;96.38;59.65;;;;;;;;;;4147634;28;20129;-63
2024/01/25 04:25:06;;;;;;;90.88;57.85;;;;;;;;;;4147706;28;20042;-63
2024/01/25 04:27:08;;;;;;;90.57;57.50;;;;;;;;;;4147721;28;20045;-63
2024/01/25 04:29:10;;;;;;;89.03;56.55;;;;;;;;;;4147737;28;20034;-63
2024/01/25 04:31:11;;;;;;;94.30;56.53;;;;;;;;;;4146212;28;20141;-63
2024/01/25 04:33:13;;;;;;;96.88;61.78;;;;;;;;;;4147564;28;20046;-63
2024/01/25 04:35:15;;;;;;;91.82;58.42;;;;;;;;;;4147620;28;20069;-63
2024/01/25 04:37:17;;;;;;;96.63;60.03;;;;;;;;;;4147575;28;20077;-63
2024/01/25 04:39:18;;;;;;;88.05;57.28;;;;;;;;;;4151805;28;20724;-63
2024/01/25 04:41:20;;;;;;;84.70;56.27;;;;;;;;;;4163918;28;20120;-63
2024/01/25 04:43:21;;;;;;;92.82;60.42;;;;;;;;;;4163743;28;20045;-63
2024/01/25 04:45:23;;;;;;;96.87;58.07;;;;;;;;;;4163743;28;20124;-63
2024/01/25 04:47:25;;;;;;;101.28;63.90;;;;;;;;;;4153122;28;20331;-63
2024/01/25 04:49:26;;;;;;;99.63;62.37;;;;;;;;;;4150889;28;20050;-63
2024/01/25 04:51:28;;;;;;;108.22;64.80;;;;;;;;;;4149433;28;20042;-63
2024/01/25 04:53:30;;;;;;;99.18;62.25;;;;;;;;;;4147283;28;20120;-63
2024/01/25 04:55:32;;;;;;;94.18;62.00;;;;;;;;;;4150789;28;20045;-63
2024/01/25 04:57:33;;;;;;;97.78;63.28;;;;;;;;;;4150733;28;20522;-63
2024/01/25 04:59:35;;;;;;;100.63;60.87;;;;;;;;;;4151000;28;20125;-63
2024/01/25 05:01:37;;;;;;;107.65;68.47;;;;;;;;;;4150792;28;20760;-63
2024/01/25 05:03:39;;;;;;;108.85;73.00;;;;;;;;;;4150595;28;20056;-63
2024/01/25 05:05:40;;;;;;;109.85;64.93;;;;;;;;;;4150614;28;20037;-62
2024/01/25 05:07:42;;;;;;;107.78;63.53;;;;;;;;;;4150017;28;20065;-63
2024/01/25 05:09:43;;;;;;;93.25;61.42;;;;;;;;;;4150423;28;20147;-63
2024/01/25 05:11:46;;;;;;;88.93;60.28;;;;;;;;;;4150519;28;20092;-63
2024/01/25 05:13:47;;;;;;;82.47;56.80;;;;;;;;;;4150480;28;20050;-63
2024/01/25 05:15:49;;;;;;;71.35;57.83;;;;;;;;;;4149955;28;20415;-63
2024/01/25 05:17:51;;;;;;;;;;;;;;;;;;4150698;28;20405;-63
2024/01/25 05:19:53;;;;;;;71.65;55.58;;;;;;;;;;4150301;28;19925;-63
2024/01/25 05:21:55;;;;;;;73.50;57.72;;;;;;;;;;4150267;28;20049;-63
2024/01/25 05:23:57;;;;;;;73.93;57.03;;;;;;;;;;4150342;28;20054;-63
2024/01/25 05:25:58;;;;;;;73.53;57.50;;;;;;;;;;4150249;28;20092;-63
2024/01/25 05:28:00;;;;;;;72.25;56.95;;;;;;;;;;4150242;28;20532;-63
2024/01/25 05:30:02;;;;;;;74.72;59.42;;;;;;;;;;4150278;28;20044;-63
2024/01/25 05:32:04;;;;;;;75.30;55.85;;;;;;;;;;4150344;28;20034;-63
2024/01/25 05:34:06;;;;;;;78.00;58.83;;;;;;;;;;4150197;28;20038;-63
2024/01/25 05:36:08;;;;;;;79.45;57.35;;;;;;;;;;4158753;28;20077;-63
2024/01/25 05:38:10;;;;;;;77.63;59.05;;;;;;;;;;4166528;28;20072;-63
2024/01/25 05:40:12;;;;;;;78.60;58.80;;;;;;;;;;4166408;28;20531;-63
2024/01/25 05:42:14;;;;;;;71.18;58.83;;;;;;;;;;4166085;28;20103;-63
2024/01/25 05:44:15;;;;;;;76.38;60.00;;;;;;;;;;4166303;28;20561;-63
2024/01/25 05:46:17;;;;;;;77.07;59.08;;;;;;;;;;4154549;28;20433;-63
2024/01/25 05:48:19;;;;;;;86.47;59.63;;;;;;;;;;4133741;28;20117;-63
2024/01/25 05:50:21;;;;;;;86.03;61.00;;;;;;;;;;4135756;28;20583;-63
2024/01/25 05:52:23;;;;;;;82.85;62.45;;;;;;;;;;4149788;28;20042;-62
2024/01/25 05:54:25;;;;;;;81.47;58.70;;;;;;;;;;4149872;28;20041;-63
2024/01/25 05:56:27;;;;;;;83.65;57.55;;;;;;;;;;4149953;28;20044;-63
2024/01/25 05:58:28;;;;;;;76.53;58.43;;;;;;;;;;4148953;28;20414;-63
2024/01/25 06:00:30;;;;;;;59.83;52.45;;;;;;;;;;4149747;28;20300;-63
2024/01/25 06:02:32;;;;;;;74.35;56.75;;;;;;;;;;4149472;28;20046;-63
2024/01/25 06:04:33;;;;;;;71.40;52.20;;;;;;;;;;4149663;28;20532;-63
2024/01/25 06:06:35;;;;;;;74.88;57.85;;;;;;;;;;4149366;28;20096;-63
2024/01/25 06:08:37;;;;;;;70.63;56.25;;;;;;;;;;4149630;28;20041;-63
2024/01/25 06:10:39;;;;;;;66.72;54.95;;;;;;;;;;4148851;28;20044;-62
2024/01/25 06:12:41;;;;;;;95.85;64.07;;;;;;;;;;4148960;28;20058;-63
2024/01/25 06:14:43;;;;;;;63.78;56.50;;;;;;;;;;4149479;28;20502;-63
2024/01/25 06:16:45;;;;;;;64.70;54.78;;;;;;;;;;4149439;28;20041;-63
2024/01/25 06:18:46;;;;;;;58.50;50.72;;;;;;;;;;4149157;28;20502;-66
2024/01/25 06:20:48;;;;;;;56.05;51.13;;;;;;;;;;4149055;28;20038;-64
2024/01/25 06:22:49;;;;;;;59.13;48.88;;;;;;;;;;4149166;28;20042;-64
2024/01/25 06:24:51;;;;;;;59.03;50.53;;;;;;;;;;4149250;28;20092;-64
2024/01/25 06:26:53;;;;;;;65.68;54.05;;;;;;;;;;4148411;28;20041;-62
2024/01/25 06:28:55;;;;;;;58.45;52.55;;;;;;;;;;4148909;28;20431;-60
2024/01/25 06:30:56;;;;;;;111.32;84.35;;;;;;;;;;4148422;28;20049;-60
2024/01/25 06:32:58;;;;;;;78.57;65.30;;;;;;;;;;4159636;28;20053;-61
2024/01/25 06:35:00;;;;;;;95.57;73.50;;;;;;;;;;4148322;28;20038;-60
2024/01/25 06:37:02;;;;;;;83.63;68.18;;;;;;;;;;4149030;28;20072;-60
2024/01/25 06:39:06;;;;;;;89.13;70.35;;;;;;;;;;4148560;28;20053;-60
2024/01/25 06:41:09;;;;;;;89.47;64.55;;;;;;;;;;4148903;28;20057;-60
2024/01/25 06:43:11;;;;;;;83.47;63.63;;;;;;;;;;4148753;28;20096;-60
2024/01/25 06:45:14;;;;;;;90.78;69.75;;;;;;;;;;4148904;28;20092;-61
2024/01/25 06:47:16;;;;;;;114.27;73.90;;;;;;;;;;4161176;28;20409;-61
2024/01/25 06:49:20;;;;;;;105.45;65.45;;;;;;;;;;4165377;28;20120;-61
2024/01/25 06:51:22;;;;;;;80.63;58.80;;;;;;;;;;4154297;28;20045;-61
2024/01/25 06:53:24;;;;;;;93.43;63.67;;;;;;;;;;4148936;28;20034;-60
2024/01/25 06:55:25;;;;;;;93.55;65.38;;;;;;;;;;4148732;28;20502;-60
2024/01/25 06:57:27;;;;;;;93.87;66.57;;;;;;;;;;4148913;28;20042;-61
2024/01/25 06:59:29;;;;;;;89.32;63.28;;;;;;;;;;4148872;28;20046;-60
2024/01/25 07:01:32;;;;;;;81.90;63.70;;;;;;;;;;4148721;28;20125;-60
2024/01/25 07:03:34;;;;;;;96.38;65.25;;;;;;;;;;4147487;28;20092;-60
2024/01/25 07:05:37;;;;;;;109.75;75.88;;;;;;;;;;4148630;28;20042;-60
2024/01/25 07:07:39;;;;;;;120.63;80.50;;;;;;;;;;4148802;28;20042;-60
2024/01/25 07:09:41;;;;;;;;;;;;;;;;;;4149157;28;20046;-59
2024/01/25 07:11:42;;;;;;;120.68;77.32;;;;;;;;;;4148586;28;19925;-60
2024/01/25 07:13:44;;;;;;;112.35;75.60;;;;;;;;;;4144567;28;20054;-60
2024/01/25 07:15:46;;;;;;;97.68;74.68;;;;;;;;;;4132371;28;20046;-60
2024/01/25 07:17:48;;;;;;;98.43;71.00;;;;;;;;;;4132404;28;20104;-60
2024/01/25 07:19:49;;;;;;;100.10;70.57;;;;;;;;;;4141816;28;20038;-61
2024/01/25 07:21:51;;;;;;;97.43;71.37;;;;;;;;;;4148130;28;20497;-60
2024/01/25 07:23:53;;;;;;;88.53;67.93;;;;;;;;;;4148265;28;20049;-60
2024/01/25 07:25:54;;;;;;;97.50;67.88;;;;;;;;;;4148344;28;20457;-60
2024/01/25 07:27:56;;;;;;;93.95;69.82;;;;;;;;;;4147962;28;20438;-60
2024/01/25 07:29:58;;;;;;;101.20;76.65;;;;;;;;;;4148377;28;20402;-60
2024/01/25 07:31:59;;;;;;;91.38;71.97;;;;;;;;;;4130858;28;20065;-60
2024/01/25 07:34:01;;;;;;;91.87;68.80;;;;;;;;;;4148441;28;20520;-60
2024/01/25 07:36:03;;;;;;;76.03;61.28;;;;;;;;;;4148173;28;20061;-60
2024/01/25 07:38:05;;;;;;;79.80;62.97;;;;;;;;;;4148255;28;20172;-59
2024/01/25 07:40:08;;;;;;;95.55;68.90;;;;;;;;;;4148256;28;20280;-60
2024/01/25 07:42:10;;;;;;;85.85;66.63;;;;;;;;;;4148013;28;20587;-60
2024/01/25 07:44:12;;;;;;;81.30;62.00;;;;;;;;;;4148117;28;20042;-60
2024/01/25 07:46:14;;;;;;;71.55;61.17;;;;;;;;;;4147978;28;20291;-60
2024/01/25 07:48:17;;;;;;;78.80;61.53;;;;;;;;;;4147979;28;20050;-60
2024/01/25 07:50:19;;;;;;;72.17;58.63;;;;;;;;;;4147965;28;20038;-60
2024/01/25 07:52:20;;;;;;;65.95;58.05;;;;;;;;;;4147898;28;20042;-60
2024/01/25 07:54:24;;;;;;;63.90;57.13;;;;;;;;;;4147676;28;20038;-60
2024/01/25 07:56:26;;;;;;;65.50;58.22;;;;;;;;;;4147961;28;20076;-61
2024/01/25 07:58:30;;;;;;;64.15;54.22;;;;;;;;;;4147688;28;20049;-60
2024/01/25 08:00:32;;;;;;;72.13;55.78;;;;;;;;;;4130435;28;20533;-60
2024/01/25 08:02:34;;;;;;;68.70;60.60;;;;;;;;;;4147811;28;20049;-61
2024/01/25 08:04:35;;;;;;;72.95;56.92;;;;;;;;;;4147854;28;20049;-60
2024/01/25 08:06:37;;;;;;;68.30;55.58;;;;;;;;;;4147597;28;20045;-60
2024/01/25 08:08:39;;;;;;;67.57;57.67;;;;;;;;;;4147765;28;20084;-60
2024/01/25 08:10:41;;;;;;;72.13;59.70;;;;;;;;;;4147986;28;20038;-60
2024/01/25 08:12:44;;;;;;;62.30;55.27;;;;;;;;;;4147509;28;20042;-60
2024/01/25 08:14:52;;;;;;;60.13;53.85;;;;;;;;;;4147995;28;20564;-60
2024/01/25 08:16:55;;;;;;;64.80;58.58;;;;;;;;;;4147680;28;20100;-60
2024/01/25 08:18:58;;;;;;;68.40;57.78;;;;;;;;;;4147544;28;20042;-60
2024/01/25 08:21:00;;;;;;;62.25;55.60;;;;;;;;;;4147087;28;20124;-61
2024/01/25 08:23:02;;;;;;;60.78;54.70;;;;;;;;;;4147753;28;20489;-60
2024/01/25 08:25:04;;;;;;;64.70;57.73;;;;;;;;;;4147631;28;20046;-60
2024/01/25 08:27:07;;;;;;;70.80;56.90;;;;;;;;;;4147112;28;20300;-60
2024/01/25 08:29:09;;;;;;;70.03;59.22;;;;;;;;;;4147825;28;20117;-60
2024/01/25 08:31:10;;;;;;;68.60;58.70;;;;;;;;;;4147599;28;20034;-60
2024/01/25 08:33:13;;;;;;;62.05;55.50;;;;;;;;;;4147767;28;20121;-60
2024/01/25 08:35:14;;;;;;;62.50;55.97;;;;;;;;;;4147577;28;20076;-60
2024/01/25 08:37:16;;;;;;;64.43;57.95;;;;;;;;;;4147576;28;20045;-60
2024/01/25 08:39:18;;;;;;;65.83;56.63;;;;;;;;;;4147516;28;20050;-60
2024/01/25 08:41:20;;;;;;;75.60;59.10;;;;;;;;;;4147492;28;20096;-60
2024/01/25 08:43:21;;;;;;;62.28;55.05;;;;;;;;;;4147396;28;20284;-60
2024/01/25 08:45:23;;;;;;;74.03;56.60;;;;;;;;;;4147433;28;20434;-60
2024/01/25 08:47:25;;;;;;;63.17;56.63;;;;;;;;;;4147565;28;20295;-64
2024/01/25 08:49:26;;;;;;;58.15;52.13;;;;;;;;;;4147719;28;20092;-64
2024/01/25 08:51:28;;;;;;;61.50;54.92;;;;;;;;;;4147406;28;20038;-64
2024/01/25 08:53:30;;;;;;;54.83;48.97;;;;;;;;;;4147504;28;20042;-63
2024/01/25 08:55:32;;;;;;;58.33;53.05;;;;;;;;;;4147333;28;20153;-63
2024/01/25 08:57:34;;;;;;;55.15;49.72;;;;;;;;;;4147410;28;20520;-64
2024/01/25 08:59:37;;;;;;;53.83;48.40;;;;;;;;;;4147613;28;20477;-64
2024/01/25 09:01:38;;;;;;;53.00;48.30;;;;;;;;;;4147287;28;20441;-64
2024/01/25 09:03:41;;;;;;;61.45;54.72;;;;;;;;;;4147365;28;20046;-64
2024/01/25 09:05:46;;;;;;;60.08;53.05;;;;;;;;;;4147224;28;20049;-64
2024/01/25 09:07:47;;;;;;;57.67;52.05;;;;;;;;;;4147334;28;20038;-64
2024/01/25 09:09:49;;;;;;;59.40;53.38;;;;;;;;;;4147207;28;20066;-63
2024/01/25 09:11:52;;;;;;;56.77;51.20;;;;;;;;;;4147165;28;20046;-64
2024/01/25 09:13:53;;;;;;;61.30;54.92;;;;;;;;;;4147277;28;20041;-64
2024/01/25 09:15:55;;;;;;;59.53;53.67;;;;;;;;;;4147325;28;20050;-63
2024/01/25 09:17:57;;;;;;;61.85;55.53;;;;;;;;;;4147376;28;20292;-63
2024/01/25 09:19:59;;;;;;;62.88;56.47;;;;;;;;;;4146970;28;20409;-63
2024/01/25 09:22:04;;;;;;;61.20;55.20;;;;;;;;;;4145935;28;20034;-64
2024/01/25 09:24:07;;;;;;;61.28;55.30;;;;;;;;;;4146762;28;20124;-64
2024/01/25 09:26:08;;;;;;;58.70;52.53;;;;;;;;;;4147040;28;20142;-64
2024/01/25 09:28:11;;;;;;;61.33;54.57;;;;;;;;;;4146943;28;20133;-63
2024/01/25 09:30:14;;;;;;;62.53;56.08;;;;;;;;;;4147067;28;20291;-64
2024/01/25 09:32:15;;;;;;;59.78;52.47;;;;;;;;;;4147093;28;20065;-63
2024/01/25 09:34:17;;;;;;;61.22;54.97;;;;;;;;;;4149744;28;20042;-63
2024/01/25 09:36:19;;;;;;;63.30;55.60;;;;;;;;;;4132693;28;20545;-64
2024/01/25 09:38:21;;;;;;;63.53;56.93;;;;;;;;;;4149972;28;20045;-64
2024/01/25 09:40:23;;;;;;;59.83;53.53;;;;;;;;;;4149787;28;20293;-63
2024/01/25 09:42:25;;;;;;;59.95;54.25;;;;;;;;;;4149942;28;20160;-63
2024/01/25 09:44:27;;;;;;;55.27;49.77;;;;;;;;;;4150016;28;20037;-63
2024/01/25 09:46:28;;;;;;;55.80;50.13;;;;;;;;;;4149739;28;20100;-63
2024/01/25 09:48:30;;;;;;;55.88;50.38;;;;;;;;;;4149915;28;20049;-63
2024/01/25 09:50:33;;;;;;;45.70;41.88;;;;;;;;;;4149858;28;20446;-63
2024/01/25 09:52:35;;;;;;;50.90;46.50;;;;;;;;;;4149756;28;20068;-63
2024/01/25 09:54:38;;;;;;;53.00;48.05;;;;;;;;;;4132402;28;20506;-63
2024/01/25 09:56:41;;;;;;;54.92;49.53;;;;;;;;;;4149948;28;20049;-63
2024/01/25 09:58:44;;;;;;;58.25;52.28;;;;;;;;;;4149716;28;20057;-64
2024/01/25 10:00:45;;;;;;;53.85;48.47;;;;;;;;;;4149625;28;20053;-64
2024/01/25 10:02:48;;;;;;;57.47;51.83;;;;;;;;;;4149620;28;20413;-64
2024/01/25 10:04:51;;;;;;;57.55;51.88;;;;;;;;;;4149556;28;20052;-64
2024/01/25 10:06:58;;;;;;;55.83;50.65;;;;;;;;;;4149541;28;20157;-64
2024/01/25 10:08:59;;;;;;;55.08;49.78;;;;;;;;;;4149330;28;20038;-63
2024/01/25 10:11:01;;;;;;;54.00;49.17;;;;;;;;;;4149487;28;20045;-64
2024/01/25 10:13:05;;;;;;;50.97;46.30;;;;;;;;;;4139009;28;20050;-64
2024/01/25 10:15:07;;;;;;;45.08;41.42;;;;;;;;;;4131478;28;20365;-63
2024/01/25 10:17:08;;;;;;;48.60;44.63;;;;;;;;;;4132282;28;20477;-63
2024/01/25 10:19:11;;;;;;;48.50;44.20;;;;;;;;;;4132285;28;20074;-64
2024/01/25 10:21:14;;;;;;;48.28;43.88;;;;;;;;;;4132747;28;20847;-63
2024/01/25 10:23:16;;;;;;;46.55;42.72;;;;;;;;;;4133344;28;20038;-63
2024/01/25 10:25:18;;;;;;;47.72;43.63;;;;;;;;;;4132906;28;20467;-63
2024/01/25 10:27:21;;;;;;;;;;;;;;;;;;4133155;28;20038;-63
2024/01/25 10:29:25;;;;;;;51.13;46.13;;;;;;;;;;4133169;28;20378;-63
2024/01/25 10:31:27;;;;;;;49.88;45.60;;;;;;;;;;4132941;28;20053;-63
2024/01/25 10:33:29;;;;;;;48.17;44.20;;;;;;;;;;4132999;28;20049;-63
2024/01/25 10:35:32;;;;;;;51.63;47.25;;;;;;;;;;4132968;28;20050;-64
2024/01/25 10:37:34;;;;;;;;;;;;;;;;;;4133323;28;20418;-64
2024/01/25 10:39:36;;;;;;;45.33;41.92;;;;;;;;;;4132984;28;20279;-64
2024/01/25 10:41:38;;;;;;;49.97;45.55;;;;;;;;;;4115724;28;20074;-64
2024/01/25 10:43:39;;;;;;;46.03;42.08;;;;;;;;;;4132694;28;20045;-63
2024/01/25 10:45:41;;;;;;;42.72;39.30;;;;;;;;;;4132690;28;20046;-63
2024/01/25 10:47:44;;;;;;;42.58;39.30;;;;;;;;;;4132664;28;20137;-63
2024/01/25 10:49:47;;;;;;;44.08;40.35;;;;;;;;;;4132732;28;20046;-63
2024/01/25 10:51:49;;;;;;;;;;;;;;;;;;4131694;28;20042;-63
2024/01/25 10:53:51;;;;;;;45.03;40.67;;;;;;;;;;4131312;28;19928;-63
2024/01/25 10:55:53;;;;;;;48.67;44.58;;;;;;;;;;4130839;28;20069;-63
2024/01/25 10:57:55;;;;;;;47.13;43.37;;;;;;;;;;4131330;28;20054;-63
2024/01/25 10:59:56;;;;;;;41.38;38.35;;;;;;;;;;4132034;28;20046;-63
2024/01/25 11:02:00;;;;;;;43.20;39.75;;;;;;;;;;4131853;28;20046;-63
2024/01/25 11:04:02;;;;;;;44.42;41.33;;;;;;;;;;4132554;28;20129;-63
2024/01/25 11:06:10;;;;;;;42.90;39.92;;;;;;;;;;4132216;28;20042;-63
2024/01/25 11:08:19;;;;;;;40.35;37.35;;;;;;;;;;4132708;28;20052;-63
2024/01/25 11:10:22;;;;;;;36.17;33.63;;;;;;;;;;4132280;28;20434;-63
2024/01/25 11:12:23;;;;;;;;;;;;;;;;;;4137473;28;20054;-63
2024/01/25 11:14:25;;;;;;;41.53;38.22;;;;;;;;;;4142866;28;19922;-63
2024/01/25 11:16:31;;;;;;;36.00;33.92;;;;;;;;;;4146343;28;20449;-63
2024/01/25 11:18:33;;;;;;;36.75;34.55;;;;;;;;;;4147547;28;20510;-63
2024/01/25 11:20:38;;;;;;;37.53;35.38;;;;;;;;;;4148166;28;20506;-63
2024/01/25 11:22:44;;;;;;;36.88;34.90;;;;;;;;;;4148350;28;20502;-63
2024/01/25 11:24:46;;;;;;;37.33;35.22;;;;;;;;;;4142973;28;20038;-63
2024/01/25 11:26:48;;;;;;;;;;;;;;;;;;4142610;28;20117;-63
2024/01/25 11:28:50;;;;;;;32.17;30.67;;;;;;;;;;4148327;28;19965;-63
2024/01/25 11:30:52;;;;;;;32.28;30.77;;;;;;;;;;4140993;28;20038;-63
2024/01/25 11:32:55;;;;;;;34.92;32.88;;;;;;;;;;4138562;28;20045;-63
2024/01/25 11:34:58;;;;;;;31.65;29.95;;;;;;;;;;4138578;28;21324;-63
2024/01/25 11:37:00;;;;;;;31.90;30.25;;;;;;;;;;4140170;28;20505;-63
2024/01/25 11:39:02;;;;;;;30.97;29.27;;;;;;;;;;4139444;28;20038;-63
2024/01/25 11:41:04;;;;;;;31.33;29.67;;;;;;;;;;4142286;28;20324;-63
2024/01/25 11:43:10;;;;;;;29.70;28.50;;;;;;;;;;4135281;28;20046;-64
2024/01/25 11:45:14;;;;;;;32.28;30.48;;;;;;;;;;4133716;28;20042;-63
2024/01/25 11:47:15;;;;;;;31.85;29.92;;;;;;;;;;4142007;28;20113;-64
2024/01/25 11:49:17;;;;;;;30.33;28.95;;;;;;;;;;4137716;28;20074;-63
2024/01/25 11:51:18;;;;;;;34.42;32.42;;;;;;;;;;4138039;28;20034;-64